createdAt,value
2017-10-22T00:01:49.132Z,83.19
2017-10-22T00:04:22.004Z,83.02
2017-10-22T00:06:53.661Z,82.84
2017-10-22T00:09:26.425Z,82.71
2017-10-22T00:11:57.765Z,82.75
2017-10-22T00:14:29.700Z,82.80
2017-10-22T00:17:01.891Z,82.92
2017-10-22T00:19:33.469Z,82.90
2017-10-22T00:22:05.984Z,82.77
2017-10-22T00:24:37.321Z,82.54
2017-10-22T00:27:08.903Z,82.49
2017-10-22T00:29:40.284Z,82.45
2017-10-22T00:32:11.636Z,82.43
2017-10-22T00:34:43.023Z,82.45
2017-10-22T00:37:14.655Z,82.42
2017-10-22T00:39:46.677Z,82.38
2017-10-22T00:42:19.855Z,82.27
2017-10-22T00:44:51.654Z,82.61
2017-10-22T00:47:24.205Z,82.79
2017-10-22T00:49:55.824Z,83.20
2017-10-22T00:52:27.197Z,83.65
2017-10-22T00:54:58.569Z,83.72
2017-10-22T00:57:30.244Z,83.64
2017-10-22T01:00:03.516Z,83.33
2017-10-22T01:02:35.133Z,82.87
2017-10-22T01:05:06.453Z,82.26
2017-10-22T01:07:37.787Z,82.01
2017-10-22T01:10:09.443Z,82.04
2017-10-22T01:12:40.844Z,81.86
2017-10-22T01:15:12.248Z,81.56
2017-10-22T01:17:43.859Z,81.19
2017-10-22T01:20:15.409Z,81.12
2017-10-22T01:22:47.052Z,81.22
2017-10-22T01:25:19.080Z,81.54
2017-10-22T01:27:50.740Z,81.63
2017-10-22T01:30:23.076Z,81.84
2017-10-22T01:32:54.399Z,82.13
2017-10-22T01:35:26.133Z,82.47
2017-10-22T01:37:57.499Z,82.62
2017-10-22T01:40:29.432Z,82.53
2017-10-22T01:43:01.007Z,82.50
2017-10-22T01:45:32.373Z,82.46
2017-10-22T01:48:05.181Z,82.46
2017-10-22T01:50:36.550Z,82.61
2017-10-22T01:53:08.042Z,82.97
2017-10-22T01:55:39.753Z,83.24
2017-10-22T01:58:11.167Z,83.47
2017-10-22T02:00:42.811Z,84.00
2017-10-22T02:03:14.173Z,84.23
2017-10-22T02:05:45.515Z,84.22
2017-10-22T02:08:17.496Z,84.03
2017-10-22T02:10:48.934Z,83.81
2017-10-22T02:13:23.036Z,83.66
2017-10-22T02:15:54.752Z,83.72
2017-10-22T02:18:26.056Z,83.78
2017-10-22T02:20:58.543Z,83.61
2017-10-22T02:23:30.160Z,83.25
2017-10-22T02:26:02.625Z,82.89
2017-10-22T02:28:33.963Z,82.54
2017-10-22T02:31:05.911Z,82.22
2017-10-22T02:33:38.803Z,82.04
2017-10-22T02:36:10.437Z,81.69
2017-10-22T02:38:42.074Z,81.76
2017-10-22T02:41:13.471Z,81.73
2017-10-22T02:43:44.842Z,81.35
2017-10-22T02:46:16.224Z,81.04
2017-10-22T02:48:47.871Z,80.78
2017-10-22T02:51:21.543Z,80.64
2017-10-22T02:53:52.913Z,80.49
2017-10-22T02:56:24.914Z,80.28
2017-10-22T02:58:56.397Z,80.13
2017-10-22T03:01:28.071Z,80.17
2017-10-22T03:03:59.447Z,80.18
2017-10-22T03:06:31.675Z,79.87
2017-10-22T03:09:08.168Z,79.45
2017-10-22T03:11:39.672Z,79.29
2017-10-22T03:14:11.042Z,79.15
2017-10-22T03:16:43.696Z,79.06
2017-10-22T03:19:15.044Z,79.01
2017-10-22T03:21:46.916Z,79.18
2017-10-22T03:24:21.102Z,79.55
2017-10-22T03:26:52.519Z,80.02
2017-10-22T03:29:26.211Z,80.47
2017-10-22T03:31:57.783Z,80.82
2017-10-22T03:34:29.384Z,81.54
2017-10-22T03:37:01.048Z,81.80
2017-10-22T03:39:32.446Z,82.23
2017-10-22T03:42:04.779Z,82.29
2017-10-22T03:44:36.121Z,82.44
2017-10-22T03:47:07.723Z,82.52
2017-10-22T03:49:39.196Z,82.59
2017-10-22T03:52:10.598Z,82.43
2017-10-22T03:54:42.196Z,82.60
2017-10-22T03:57:13.772Z,82.69
2017-10-22T03:59:45.072Z,82.26
2017-10-22T04:02:16.886Z,81.41
2017-10-22T04:04:48.210Z,80.67
2017-10-22T04:07:20.585Z,80.25
2017-10-22T04:09:52.276Z,79.05
2017-10-22T04:12:28.536Z,78.89
2017-10-22T04:14:59.990Z,78.92
2017-10-22T04:17:31.491Z,78.73
2017-10-22T04:20:04.840Z,78.71
2017-10-22T04:22:36.619Z,78.92
2017-10-22T04:25:08.231Z,79.20
2017-10-22T04:27:40.734Z,79.69
2017-10-22T04:30:12.457Z,80.21
2017-10-22T04:32:43.830Z,80.67
2017-10-22T04:35:15.911Z,81.01
2017-10-22T04:37:47.633Z,81.38
2017-10-22T04:40:19.676Z,82.19
2017-10-22T04:42:51.053Z,81.91
2017-10-22T04:45:24.691Z,81.93
2017-10-22T04:47:56.205Z,82.01
2017-10-22T04:50:28.005Z,81.94
2017-10-22T04:52:59.351Z,81.90
2017-10-22T04:55:30.668Z,81.81
2017-10-22T04:58:03.670Z,81.68
2017-10-22T05:00:35.000Z,81.55
2017-10-22T05:03:06.657Z,81.38
2017-10-22T05:05:38.383Z,81.06
2017-10-22T05:08:09.731Z,80.96
2017-10-22T05:10:41.093Z,80.82
2017-10-22T05:13:13.769Z,80.65
2017-10-22T05:15:45.566Z,80.38
2017-10-22T05:18:17.839Z,80.21
2017-10-22T05:20:49.559Z,79.87
2017-10-22T05:23:20.782Z,79.85
2017-10-22T05:25:53.385Z,79.85
2017-10-22T05:28:26.596Z,79.71
2017-10-22T05:30:58.670Z,79.53
2017-10-22T05:33:29.893Z,79.54
2017-10-22T05:36:03.571Z,79.58
2017-10-22T05:38:35.351Z,79.37
2017-10-22T05:41:12.514Z,79.38
2017-10-22T05:43:47.262Z,78.56
2017-10-22T05:46:18.807Z,78.75
2017-10-22T05:51:58.731Z,78.22
2017-10-22T05:54:30.314Z,78.03
2017-10-22T05:57:01.929Z,77.93
2017-10-22T05:59:34.023Z,77.85
2017-10-22T06:02:08.654Z,77.65
2017-10-22T06:04:39.793Z,77.01
2017-10-22T06:07:11.878Z,76.19
2017-10-22T06:09:55.559Z,74.79
2017-10-22T06:12:26.690Z,73.83
2017-10-22T06:14:59.166Z,72.86
2017-10-22T06:17:40.400Z,72.67
2017-10-22T06:26:30.093Z,71.80
2017-10-22T06:29:03.461Z,71.76
2017-10-22T06:31:34.801Z,70.93
2017-10-22T06:34:07.651Z,70.83
2017-10-22T06:36:41.150Z,70.89
2017-10-22T06:39:12.440Z,70.78
2017-10-22T06:41:43.861Z,70.23
2017-10-22T06:44:16.047Z,70.33
2017-10-22T06:46:50.042Z,70.42
2017-10-22T06:49:21.476Z,70.52
2017-10-22T06:51:53.456Z,69.97
2017-10-22T06:54:24.632Z,67.46
2017-10-22T06:56:57.788Z,65.91
2017-10-22T06:59:29.134Z,65.65
2017-10-22T07:02:00.423Z,65.14
2017-10-22T07:04:32.047Z,64.44
2017-10-22T07:07:03.959Z,64.39
2017-10-22T07:09:37.589Z,64.06
2017-10-22T07:12:09.526Z,63.37
2017-10-22T07:14:40.732Z,63.15
2017-10-22T07:17:12.203Z,62.59
2017-10-22T07:19:44.376Z,62.39
2017-10-22T07:22:16.581Z,61.33
2017-10-22T07:24:47.747Z,60.52
2017-10-22T07:27:21.491Z,59.68
2017-10-22T07:29:53.994Z,59.50
2017-10-22T07:32:25.161Z,59.12
2017-10-22T07:34:56.405Z,59.53
2017-10-22T07:37:27.924Z,59.36
2017-10-22T07:39:59.090Z,59.57
2017-10-22T07:42:30.427Z,59.53
2017-10-22T07:48:08.676Z,58.73
2017-10-22T07:53:46.284Z,57.97
2017-10-22T07:56:19.503Z,57.14
2017-10-22T07:58:51.078Z,57.05
2017-10-22T08:01:24.880Z,56.99
2017-10-22T08:03:56.231Z,56.11
2017-10-22T08:06:29.388Z,56.28
2017-10-22T08:12:05.345Z,55.60
2017-10-22T08:14:42.134Z,55.58
2017-10-22T08:17:13.238Z,56.35
2017-10-22T08:19:44.645Z,56.98
2017-10-22T08:22:15.880Z,56.92
2017-10-22T08:24:47.205Z,57.43
2017-10-22T08:27:19.774Z,57.52
2017-10-22T08:29:51.635Z,57.95
2017-10-22T08:32:22.770Z,58.09
2017-10-22T08:34:54.256Z,58.28
2017-10-22T08:37:25.462Z,58.36
2017-10-22T08:39:56.608Z,58.48
2017-10-22T08:42:28.053Z,58.71
2017-10-22T08:44:59.443Z,58.93
2017-10-22T08:47:30.722Z,58.98
2017-10-22T08:50:02.991Z,59.29
2017-10-22T08:55:40.737Z,59.79
2017-10-22T08:58:12.438Z,59.85
2017-10-22T09:00:45.135Z,59.67
2017-10-22T09:03:16.915Z,59.85
2017-10-22T09:05:48.312Z,59.90
2017-10-22T09:08:20.091Z,59.71
2017-10-22T09:10:51.572Z,59.59
2017-10-22T09:13:23.512Z,59.19
2017-10-22T09:15:54.933Z,58.99
2017-10-22T09:21:10.393Z,60.32
2017-10-22T09:23:42.381Z,61.20
2017-10-22T09:26:18.429Z,62.11
2017-10-22T09:28:54.969Z,61.43
2017-10-22T09:34:08.731Z,58.62
2017-10-22T09:36:40.935Z,47.76
2017-10-22T09:39:12.865Z,39.71
2017-10-22T09:41:44.958Z,37.19
2017-10-22T09:44:17.955Z,37.77
2017-10-22T09:46:50.647Z,37.74
2017-10-22T09:49:23.009Z,36.26
2017-10-22T09:51:54.402Z,34.88
2017-10-22T09:54:28.005Z,36.93
2017-10-22T09:57:01.403Z,41.32
2017-10-22T09:59:33.008Z,45.09
2017-10-22T10:02:10.193Z,47.37
2017-10-22T10:04:41.953Z,48.81
2017-10-22T10:07:14.309Z,50.25
2017-10-22T10:15:25.773Z,54.96
2017-10-22T10:17:58.862Z,54.95
2017-10-22T10:20:31.316Z,55.84
2017-10-22T10:23:10.058Z,56.02
2017-10-22T10:25:44.201Z,55.64
2017-10-22T10:28:18.552Z,55.54
2017-10-22T10:30:49.996Z,55.01
2017-10-22T10:33:21.357Z,55.01
2017-10-22T10:35:56.603Z,53.91
2017-10-22T10:38:29.561Z,53.49
2017-10-22T10:41:14.928Z,53.49
2017-10-22T10:43:49.280Z,52.77
2017-10-22T10:46:20.827Z,53.31
2017-10-22T10:48:53.331Z,54.29
2017-10-22T10:51:25.349Z,54.29
2017-10-22T10:54:02.544Z,54.11
2017-10-22T10:56:35.850Z,54.22
2017-10-22T10:59:16.807Z,54.52
2017-10-22T11:01:51.220Z,55.08
2017-10-22T11:04:22.628Z,55.01
2017-10-22T11:06:55.168Z,55.09
2017-10-22T11:09:26.696Z,54.45
2017-10-22T11:12:03.113Z,53.47
2017-10-22T11:14:38.248Z,52.36
2017-10-22T11:17:11.176Z,48.54
2017-10-22T11:19:44.159Z,45.62
2017-10-22T11:22:21.704Z,39.17
2017-10-22T11:24:55.885Z,40.62
2017-10-22T11:27:32.330Z,43.72
2017-10-22T11:30:07.166Z,47.46
2017-10-22T11:32:41.808Z,49.87
2017-10-22T11:35:14.840Z,51.15
2017-10-22T11:37:48.731Z,51.54
2017-10-22T11:40:22.339Z,52.54
2017-10-22T11:42:57.573Z,52.78
2017-10-22T11:45:29.934Z,52.35
2017-10-22T11:48:03.875Z,49.77
2017-10-22T11:50:42.005Z,50.10
2017-10-22T11:53:16.441Z,51.43
2017-10-22T11:55:52.850Z,49.95
2017-10-22T11:58:27.556Z,49.19
2017-10-22T12:01:00.317Z,49.78
2017-10-22T12:03:32.247Z,51.25
2017-10-22T12:18:31.405Z,55.09
2017-10-22T12:21:03.673Z,55.81
2017-10-22T12:23:35.804Z,56.14
2017-10-22T12:26:07.211Z,56.43
2017-10-22T12:28:39.350Z,57.20
2017-10-22T12:31:11.400Z,57.20
2017-10-22T12:33:43.796Z,57.01
2017-10-22T12:36:15.341Z,57.84
2017-10-22T12:38:47.280Z,58.23
2017-10-22T12:41:18.749Z,58.78
2017-10-22T12:43:50.198Z,58.98
2017-10-22T12:46:22.007Z,59.28
2017-10-22T12:48:53.418Z,59.73
2017-10-22T12:51:24.786Z,60.20
2017-10-22T12:53:59.584Z,60.57
2017-10-22T13:02:45.854Z,60.34
2017-10-22T13:05:22.472Z,60.53
2017-10-22T13:07:54.326Z,60.99
2017-10-22T13:10:25.644Z,61.10
2017-10-22T13:13:01.976Z,60.54
2017-10-22T13:15:39.320Z,59.66
2017-10-22T13:18:13.031Z,58.45
2017-10-22T13:20:44.991Z,58.43
2017-10-22T13:23:20.549Z,58.36
2017-10-22T13:32:08.121Z,59.12
2017-10-22T13:34:39.488Z,59.53
2017-10-22T13:37:13.689Z,59.49
2017-10-22T13:39:45.184Z,59.60
2017-10-22T13:42:17.112Z,60.31
2017-10-22T13:44:49.407Z,61.01
2017-10-22T13:47:21.425Z,60.78
2017-10-22T13:49:54.600Z,61.31
2017-10-22T13:52:28.763Z,61.94
2017-10-22T13:55:03.613Z,62.19
2017-10-22T13:57:36.016Z,63.05
2017-10-22T14:00:07.833Z,64.08
2017-10-22T14:02:39.446Z,64.60
2017-10-22T14:05:11.510Z,64.08
2017-10-22T14:07:47.105Z,64.32
2017-10-22T14:10:18.565Z,64.34
2017-10-22T14:12:51.164Z,64.13
2017-10-22T14:15:22.795Z,63.95
2017-10-22T14:17:55.001Z,63.27
2017-10-22T14:20:32.467Z,63.33
2017-10-22T14:23:06.196Z,64.04
2017-10-22T14:25:39.383Z,64.42
2017-10-22T14:28:10.929Z,63.62
2017-10-22T14:30:42.384Z,64.32
2017-10-22T14:33:14.935Z,64.40
2017-10-22T14:35:46.993Z,64.62
2017-10-22T14:38:20.040Z,64.95
2017-10-22T14:40:56.395Z,65.80
2017-10-22T14:43:31.664Z,65.19
2017-10-22T14:46:10.331Z,65.84
2017-10-22T14:48:42.370Z,66.19
2017-10-22T14:51:31.442Z,66.56
2017-10-22T14:54:06.978Z,66.74
2017-10-22T14:56:41.104Z,67.03
2017-10-22T15:05:18.774Z,67.31
2017-10-22T15:07:50.150Z,67.07
2017-10-22T15:10:21.577Z,67.20
2017-10-22T15:12:53.306Z,67.10
2017-10-22T15:15:24.739Z,67.10
2017-10-22T15:17:56.247Z,67.50
2017-10-22T15:20:28.186Z,67.62
2017-10-22T15:22:59.540Z,67.55
2017-10-22T15:25:30.840Z,68.00
2017-10-22T15:28:03.579Z,67.80
2017-10-22T15:30:35.192Z,67.79
2017-10-22T15:33:06.570Z,68.02
2017-10-22T15:35:37.880Z,68.01
2017-10-22T15:38:09.248Z,67.89
2017-10-22T15:40:42.222Z,67.19
2017-10-22T15:43:15.406Z,67.37
2017-10-22T15:45:46.703Z,67.55
2017-10-22T15:48:19.176Z,67.62
2017-10-22T15:50:50.483Z,67.57
2017-10-22T15:53:22.148Z,67.93
2017-10-22T15:55:53.575Z,67.75
2017-10-22T15:58:24.881Z,67.97
2017-10-22T16:00:56.494Z,68.15
2017-10-22T16:03:27.898Z,68.32
2017-10-22T16:05:59.606Z,68.58
2017-10-22T16:08:30.989Z,68.74
2017-10-22T16:11:02.570Z,68.81
2017-10-22T16:13:34.263Z,68.96
2017-10-22T16:16:06.241Z,69.03
2017-10-22T16:18:37.639Z,68.81
2017-10-22T16:21:10.324Z,69.14
2017-10-22T16:23:41.623Z,69.22
2017-10-22T16:26:14.801Z,69.69
2017-10-22T16:28:46.327Z,69.64
2017-10-22T16:31:19.279Z,69.90
2017-10-22T16:33:50.908Z,69.57
2017-10-22T16:36:22.230Z,69.94
2017-10-22T16:38:54.096Z,69.70
2017-10-22T16:41:25.423Z,69.49
2017-10-22T16:43:56.754Z,68.73
2017-10-22T16:46:28.418Z,69.07
2017-10-22T16:48:59.778Z,69.04
2017-10-22T16:51:32.066Z,69.19
2017-10-22T16:54:04.878Z,69.08
2017-10-22T16:56:36.799Z,69.04
2017-10-22T16:59:08.706Z,69.18
2017-10-22T17:01:40.138Z,69.36
2017-10-22T17:04:11.685Z,69.49
2017-10-22T17:06:43.546Z,69.45
2017-10-22T17:09:17.300Z,69.58
2017-10-22T17:11:49.973Z,69.66
2017-10-22T17:14:22.652Z,69.78
2017-10-22T17:16:54.009Z,69.87
2017-10-22T17:19:26.224Z,69.88
2017-10-22T17:22:04.213Z,70.01
2017-10-22T17:24:36.030Z,70.06
2017-10-22T17:27:07.391Z,70.33
2017-10-22T17:29:39.036Z,70.47
2017-10-22T17:32:10.704Z,70.67
2017-10-22T17:34:42.184Z,70.75
2017-10-22T17:37:14.680Z,70.86
2017-10-22T17:39:46.063Z,71.21
2017-10-22T17:42:20.307Z,71.16
2017-10-22T17:44:51.946Z,71.18
2017-10-22T17:47:23.286Z,71.05
2017-10-22T17:49:54.643Z,71.11
2017-10-22T17:52:26.346Z,71.39
2017-10-22T17:54:57.754Z,71.38
2017-10-22T17:57:29.135Z,71.46
2017-10-22T18:00:01.689Z,71.58
2017-10-22T18:02:33.288Z,71.66
2017-10-22T18:05:05.023Z,71.83
2017-10-22T18:07:36.839Z,71.67
2017-10-22T18:10:14.081Z,71.69
2017-10-22T18:12:45.775Z,72.00
2017-10-22T18:15:20.216Z,72.62
2017-10-22T18:17:51.548Z,72.49
2017-10-22T18:20:39.994Z,72.59
2017-10-22T18:23:12.730Z,72.83
2017-10-22T18:25:46.844Z,72.98
2017-10-22T18:28:21.069Z,73.05
2017-10-22T18:30:52.467Z,73.17
2017-10-22T18:33:24.017Z,73.52
2017-10-22T18:35:57.193Z,73.64
2017-10-22T18:38:28.718Z,73.80
2017-10-22T18:41:00.343Z,73.84
2017-10-22T18:43:32.241Z,74.28
2017-10-22T18:46:05.762Z,74.90
2017-10-22T18:48:37.097Z,74.95
2017-10-22T18:51:08.686Z,75.45
2017-10-22T18:53:40.113Z,75.62
2017-10-22T18:56:12.768Z,76.23
2017-10-22T18:58:47.890Z,76.52
2017-10-22T19:01:21.461Z,77.59
2017-10-22T19:03:52.788Z,78.07
2017-10-22T19:06:25.826Z,78.37
2017-10-22T19:08:57.471Z,78.49
2017-10-22T19:11:32.192Z,78.51
2017-10-22T19:14:05.653Z,77.46
2017-10-22T19:16:36.947Z,74.47
2017-10-22T19:19:08.277Z,73.72
2017-10-22T19:21:40.230Z,73.16
2017-10-22T19:24:11.909Z,73.18
2017-10-22T19:26:43.248Z,73.56
2017-10-22T19:29:14.632Z,73.63
2017-10-22T19:31:46.231Z,73.55
2017-10-22T19:34:20.227Z,73.86
2017-10-22T19:36:53.999Z,73.74
2017-10-22T19:39:26.046Z,74.00
2017-10-22T19:41:57.694Z,74.02
2017-10-22T19:44:29.854Z,73.88
2017-10-22T19:47:03.641Z,73.74
2017-10-22T19:49:38.677Z,73.58
2017-10-22T19:52:11.435Z,73.55
2017-10-22T19:54:44.798Z,73.52
2017-10-22T19:57:18.994Z,73.92
2017-10-22T19:59:50.576Z,73.96
2017-10-22T20:02:26.601Z,73.89
2017-10-22T20:05:00.871Z,73.92
2017-10-22T20:07:32.721Z,73.88
2017-10-22T20:10:10.517Z,73.59
2017-10-22T20:12:42.227Z,73.06
2017-10-22T20:15:15.344Z,73.27
2017-10-22T20:17:49.098Z,72.97
2017-10-22T20:20:26.249Z,72.97
2017-10-22T20:22:59.254Z,72.85
2017-10-22T20:26:03.644Z,72.79
2017-10-22T20:28:35.625Z,72.70
2017-10-22T20:31:14.138Z,72.52
2017-10-22T20:33:45.561Z,72.57
2017-10-22T20:36:17.174Z,72.75
2017-10-22T20:38:49.654Z,72.51
2017-10-22T20:41:22.041Z,72.24
2017-10-22T20:43:53.728Z,72.13
2017-10-22T20:46:26.965Z,72.16
2017-10-22T20:48:58.248Z,72.34
2017-10-22T20:51:30.403Z,72.20
2017-10-22T20:54:04.428Z,71.97
2017-10-22T20:56:37.217Z,71.80
2017-10-22T20:59:08.517Z,71.74
2017-10-22T21:01:40.228Z,72.00
2017-10-22T21:04:11.568Z,71.91
2017-10-22T21:06:42.975Z,71.54
2017-10-22T21:09:18.474Z,71.28
2017-10-22T21:11:53.695Z,70.79
2017-10-22T21:14:27.019Z,70.78
2017-10-22T21:17:00.289Z,70.51
2017-10-22T21:19:31.649Z,70.27
2017-10-22T21:22:04.632Z,70.51
2017-10-22T21:24:36.073Z,70.11
2017-10-22T21:27:07.493Z,69.84
2017-10-22T21:29:39.084Z,69.75
2017-10-22T21:32:12.191Z,69.72
2017-10-22T21:34:44.313Z,68.71
2017-10-22T21:37:17.258Z,68.73
2017-10-22T21:39:52.528Z,68.57
2017-10-22T21:42:28.495Z,68.54
2017-10-22T21:44:59.796Z,68.69
2017-10-22T21:47:31.248Z,68.35
2017-10-22T21:50:03.517Z,68.28
2017-10-22T21:52:35.236Z,68.31
2017-10-22T21:55:12.524Z,68.43
2017-10-22T21:57:47.543Z,68.51
2017-10-22T22:00:39.650Z,67.90
2017-10-22T22:03:22.913Z,67.91
2017-10-22T22:06:04.703Z,67.96
2017-10-22T22:08:38.530Z,68.02
2017-10-22T22:11:13.734Z,67.97
2017-10-22T22:13:45.447Z,68.13
2017-10-22T22:16:19.575Z,68.29
2017-10-22T22:18:55.157Z,68.19
2017-10-22T22:21:28.141Z,68.10
2017-10-22T22:23:59.757Z,68.15
2017-10-22T22:26:31.188Z,68.32
2017-10-22T22:29:07.940Z,68.48
2017-10-22T22:31:42.125Z,68.64
2017-10-22T22:47:15.040Z,68.37
2017-10-22T22:49:47.324Z,68.78
2017-10-22T22:52:31.957Z,68.91
2017-10-22T22:55:06.812Z,69.00
2017-10-22T22:57:44.735Z,69.12
2017-10-22T23:00:21.101Z,69.26
2017-10-22T23:02:56.363Z,69.41
2017-10-22T23:05:31.243Z,69.34
2017-10-22T23:08:16.213Z,69.43
2017-10-22T23:10:49.328Z,69.49
2017-10-22T23:13:25.902Z,69.42
2017-10-22T23:15:57.419Z,69.44
2017-10-22T23:18:34.243Z,69.46
2017-10-22T23:21:07.486Z,69.39
2017-10-22T23:23:44.119Z,69.34
2017-10-22T23:26:22.353Z,69.51
2017-10-22T23:28:55.577Z,69.56
2017-10-22T23:31:29.835Z,69.63
2017-10-22T23:34:05.727Z,69.69
2017-10-22T23:36:43.970Z,69.73
2017-10-22T23:39:19.070Z,69.80
2017-10-22T23:41:54.340Z,69.83
2017-10-22T23:44:28.347Z,69.95
2017-10-22T23:47:01.773Z,70.14
2017-10-22T23:49:35.509Z,70.12
2017-10-22T23:52:14.275Z,70.33
2017-10-22T23:54:47.847Z,70.72
2017-10-22T23:57:22.715Z,70.86
2017-10-22T23:59:57.429Z,71.20
